Latest Coastal Weather Observations for Hervey Bay

IDQ60701

Issued at 9:51 pm EST Saturday 18 April 2015 (issued every 10 minutes, with the page automatically refreshed every 10 minutes)

About coastal observations | Map of coastal stations | Coastal observations for QLD | Marine services | Other Formats
Station Details ID: 040405 Name: HERVEY BAY AIRPORT Lat: -25.32 Lon: 152.88 Height: 12.98 m
Data from the previous 72 hours. | See also: Recent months at Hervey Bay
Date/Time
EST
Temp

°C
Wind Pressure Rain
since 9am
mm
Weather Cloud Vis
km
Sea
Height
m
Swell
Dir
 
Speed
knots
Gust
knots
hPa Trend Height
m
Period
s
Dir
18/09:30pm 23.3 E 5 6 1020.3 - 2.0 - - 10 - - - -
18/09:00pm 23.8 E 7 9 1020.2 - 2.0 - Mostly cloudy 10 - - - -
18/08:30pm 24.1 ENE 9 13 1020.1 - 2.0 - Partly cloudy 10 - - - -
18/08:00pm 23.7 ENE 7 8 1019.8 - 2.0 - Partly cloudy 10 - - - -
18/07:30pm 23.3 ENE 6 9 1019.7 - 2.0 - Partly cloudy 10 - - - -
18/07:00pm 23.8 ENE 7 9 1019.3 - 2.0 - Partly cloudy 10 - - - -
18/06:30pm 23.8 ENE 6 8 1018.9 - 2.0 - - 10 - - - -
18/06:00pm 23.8 ENE 9 13 1018.8 - 2.0 - Mostly clear 10 - - - -
18/05:30pm 24.1 ENE 11 16 1018.8 - 2.0 - Partly cloudy 10 - - - -
18/05:00pm 23.9 NNE 4 9 1018.8 - 2.0 - Partly cloudy 10 - - - -
18/04:30pm 25.0 SSE 2 6 1018.6 - 1.8 - Partly cloudy 10 - - - -
18/04:00pm 25.0 SSW 1 3 1018.2 - 1.8 - Partly cloudy 10 - - - -
18/03:30pm 25.4 NE 10 16 1018.3 - 0.8 - Partly cloudy 10 - - - -
18/03:00pm 26.2 NNE 3 5 1018.1 - 0.8 Recent precip. Cloudy 10 - - - -
18/02:30pm 24.8 NNE 8 11 1018.3 - 0.8 - Partly cloudy 10 - - - -
18/02:00pm 24.7 NNE 6 12 1018.4 - 0.6 - Partly cloudy 7 - - - -
18/01:30pm 27.3 NNE 9 14 1018.5 - 0.2 - Partly cloudy 10 - - - -
18/01:00pm 28.4 NE 8 11 1018.8 - 0.2 - Partly cloudy 10 - - - -
18/12:30pm 27.2 NNE 7 11 1019.4 - 0.2 - Partly cloudy 10 - - - -
18/12:00pm 28.4 ENE 8 12 1019.8 - 0.2 - - 10 - - - -
18/11:30am 28.3 ENE 8 11 1020.2 - 0.2 - - 10 - - - -
18/11:00am 27.7 ENE 7 10 1020.8 - 0.2 - - 10 - - - -
18/10:30am 27.1 E 6 9 1021.1 - 0.2 - - 10 - - - -
18/10:00am 26.4 ENE 5 8 1021.6 - 0.2 - - 10 - - - -
18/09:30am 25.6 ESE 5 9 1021.4 - 0.2 - - 10 - - - -
18/09:00am 24.5 S 4 6 1021.5 - 10.2 - - 10 - - - -
18/08:30am 23.0 SSW 5 6 1021.5 - 10.2 - Partly cloudy 10 - - - -
18/08:00am 21.4 SSE 5 8 1021.3 - 10.2 - Partly cloudy 10 - - - -
18/07:30am 21.6 S 4 7 1021.0 - 10.0 - Partly cloudy 10 - - - -
18/07:00am 21.1 SE 4 6 1020.9 - 10.0 - Partly cloudy 10 - - - -
18/06:58am 21.0 ESE 4 6 1020.9 - 10.0 - Partly cloudy 10 - - - -
18/06:40am 21.1 E 4 7 1021.2 - 9.6 - Partly cloudy 5 - - - -
18/06:38am 21.0 ENE 4 7 1021.2 - 9.4 - Partly cloudy 7 - - - -
18/06:30am 21.0 E 3 7 1021.0 - 9.0 - Partly cloudy 6 - - - -
18/06:24am 20.9 SE 4 6 1020.9 - 9.0 - Partly cloudy 5 - - - -
18/06:00am 20.8 SE 4 6 1020.6 - 8.0 Rain Mostly cloudy 10 - - - -
18/05:56am 20.8 SE 5 6 1020.6 - 8.0 - Partly cloudy 10 - - - -
18/05:40am 20.7 SE 7 13 1020.2 - 7.6 - Partly cloudy 5 - - - -
18/05:30am 20.0 S 4 6 1020.2 - 7.0 - Partly cloudy 10 - - - -
18/05:00am 20.2 S 4 5 1019.9 - 7.0 - Partly cloudy 10 - - - -
18/04:30am 20.5 SW 4 6 1020.0 - 7.0 - Partly cloudy 10 - - - -
18/04:00am 20.4 SSW 6 7 1019.9 - 7.0 - Partly cloudy 10 - - - -
18/03:30am 20.5 SSW 6 8 1019.8 - 7.0 - Partly cloudy 10 - - - -
18/03:00am 20.5 SSW 5 6 1019.8 - 7.0 - Mostly clear 10 - - - -
18/02:30am 20.8 SW 4 5 1020.0 - 7.0 - Partly cloudy 10 - - - -
18/02:00am 21.0 SSW 4 5 1020.2 - 7.0 - Partly cloudy 10 - - - -
18/01:30am 21.0 S 5 7 1020.3 - 7.0 - Partly cloudy 10 - - - -
18/01:16am 21.2 S 3 5 1020.5 - 7.0 - Partly cloudy 10 - - - -
18/01:00am 21.2 SSE 5 7 1020.7 - 6.8 - Partly cloudy 4 - - - -
18/12:30am 21.2 SE 6 9 1021.0 - 3.6 - Partly cloudy 5 - - - -
18/12:16am 21.1 ESE 5 8 1021.2 - 2.4 - Partly cloudy 5 - - - -
18/12:07am 20.8 ESE 7 9 1021.2 - 2.0 - Partly cloudy 10 - - - -
 
Date/Time
EST
Temp

°C
Wind Pressure Rain
since 9am
mm
Weather Cloud Vis
km
Sea
Height
m
Swell
Dir
 
Speed
knots
Gust
knots
hPa Trend Height
m
Period
s
Dir
17/11:50pm 21.7 E 12 19 1021.3 - 1.8 - Partly cloudy 5 - - - -
17/11:30pm 22.1 ESE 6 7 1021.2 - 0.8 - Partly cloudy 10 - - - -
17/11:00pm 22.0 SE 4 6 1021.4 - 0.8 - Partly cloudy 10 - - - -
17/10:30pm 22.0 SSE 1 3 1021.4 - 0.8 - Partly cloudy 10 - - - -
17/10:00pm 22.5 ENE 5 7 1021.5 - 0.8 - Partly cloudy 10 - - - -
17/09:30pm 22.6 ENE 6 9 1021.5 - 0.8 - Partly cloudy 10 - - - -
17/09:00pm 21.0 S 1 4 1021.3 - 0.8 - Cloudy 10 - - - -
17/08:30pm 21.1 S 3 4 1021.1 - 0.8 - Partly cloudy 10 - - - -
17/08:00pm 21.2 S 2 4 1021.1 - 0.8 - Partly cloudy 10 - - - -
17/07:30pm 22.0 ESE 8 12 1021.1 - 0.6 - Partly cloudy 8 - - - -
17/07:00pm 21.9 SSE 3 5 1020.6 - 0.4 - Partly cloudy 10 - - - -
17/06:46pm 21.9 SE 5 7 1020.5 - 0.4 - Partly cloudy 10 - - - -
17/06:33pm 22.2 E 11 15 1020.5 - 0.4 - Partly cloudy 5 - - - -
17/06:30pm 22.2 E 10 15 1020.5 - 0.4 - Partly cloudy 7 - - - -
17/06:00pm 23.9 NE 5 7 1019.9 - 0.2 - Cloudy 10 - - - -
17/05:30pm 24.5 ESE 7 8 1019.8 - 0.2 - Partly cloudy 10 - - - -
17/05:00pm 24.2 ESE 9 16 1019.6 - 0.2 - Partly cloudy 10 - - - -
17/04:30pm 26.3 E 10 14 1019.4 - 0.2 - Partly cloudy 10 - - - -
17/04:00pm 26.4 ESE 11 16 1019.2 - 0.2 - Partly cloudy 10 - - - -
17/03:30pm 26.6 ESE 9 13 1019.0 - 0.2 - Partly cloudy 10 - - - -
17/03:00pm 27.4 ESE 11 15 1019.2 - 0.2 - - 10 - - - -
17/02:30pm 27.5 ESE 11 16 1019.4 - 0.2 - - 10 - - - -
17/02:00pm 27.4 ESE 11 15 1019.4 - 0.2 - - 10 - - - -
17/01:30pm 27.9 ESE 11 15 1019.7 - 0.2 - - 10 - - - -
17/01:00pm 27.8 ESE 11 15 1020.0 - 0.2 - - 10 - - - -
17/12:30pm 27.8 ESE 9 13 1020.5 - 0.2 - - 10 - - - -
17/12:00pm 27.2 ESE 8 14 1021.1 - 0.2 - - 10 - - - -
17/11:30am 27.2 ESE 9 13 1021.8 - 0.2 - - 10 - - - -
17/11:00am 27.0 ESE 7 11 1022.2 - 0.2 - - 10 - - - -
17/10:30am 26.3 SE 6 11 1022.7 - 0.2 - - 10 - - - -
17/10:00am 25.0 SSW 5 8 1022.9 - 0.2 - - 10 - - - -
17/09:30am 23.2 SSW 6 8 1023.3 - 0.0 - Cloudy 10 - - - -
17/09:00am 22.1 SSW 6 8 1023.7 - 2.8 - Partly cloudy 10 - - - -
17/08:30am 20.8 SW 5 7 1023.6 - 2.8 - Partly cloudy 10 - - - -
17/08:00am 20.4 SW 5 7 1023.5 - 2.8 - Partly cloudy 10 - - - -
17/07:33am 20.2 N 5 6 1023.2 - 2.8 - Partly cloudy 10 - - - -
17/07:30am 20.1 N 5 6 1023.2 - 2.8 - Partly cloudy 10 - - - -
17/07:00am 18.9 W 3 5 1023.0 - 1.8 - Partly cloudy 5 - - - -
17/06:56am 18.9 SW 4 5 1022.9 - 1.8 - Partly cloudy 5 - - - -
17/06:30am 18.7 CALM 0 0 1022.5 - 0.8 - Partly cloudy 10 - - - -
17/06:00am 18.4 SSW 4 6 1021.9 - 0.8 - Cloudy 10 - - - -
17/05:30am 18.2 SSW 6 8 1021.5 - 0.8 - Partly cloudy 10 - - - -
17/05:00am 17.9 SSW 6 7 1021.2 - 0.8 - Partly cloudy 10 - - - -
17/04:30am 17.7 SW 3 4 1021.1 - 0.8 - Partly cloudy 10 - - - -
17/04:00am 17.6 SSW 4 6 1020.8 - 0.8 - - 10 - - - -
17/03:30am 17.9 SW 4 5 1020.8 - 0.8 - - 10 - - - -
17/03:00am 17.9 WSW 3 4 1020.9 - 0.8 - Mostly clear 10 - - - -
17/02:30am 18.5 SW 4 5 1021.0 - 0.8 - Partly cloudy 10 - - - -
17/02:00am 17.2 SSW 3 5 1021.5 - 0.8 - Partly cloudy 10 - - - -
17/01:30am 17.8 SSW 1 3 1021.7 - 0.8 - - 10 - - - -
17/01:00am 18.6 SSW 4 5 1022.1 - 0.8 - - 10 - - - -
17/12:30am 18.7 SW 5 7 1022.2 - 0.8 - - 10 - - - -
17/12:00am 18.9 SSW 5 6 1022.6 - 0.8 - Mostly clear 10 - - - -
 
Date/Time
EST
Temp

°C
Wind Pressure Rain
since 9am
mm
Weather Cloud Vis
km
Sea
Height
m
Swell
Dir
 
Speed
knots
Gust
knots
hPa Trend Height
m
Period
s
Dir
16/11:30pm 18.8 SW 1 5 1022.8 - 0.8 - Partly cloudy 10 - - - -
16/11:00pm 18.1 CALM 0 0 1023.0 - 0.8 - Partly cloudy 10 - - - -
16/10:30pm 17.6 SW 3 4 1023.2 - 0.8 - - 10 - - - -
16/10:00pm 18.1 S 3 4 1023.2 - 0.8 - - 10 - - - -
16/09:30pm 18.4 S 3 4 1023.2 - 0.8 - - 10 - - - -
16/09:00pm 19.3 SSE 4 5 1023.1 - 0.8 - - 10 - - - -
16/08:30pm 20.3 SSE 4 5 1023.2 - 0.8 - - 10 - - - -
16/08:00pm 21.5 SSE 5 7 1022.9 - 0.8 - - 10 - - - -
16/07:30pm 21.7 SSE 5 6 1022.6 - 0.8 - - 10 - - - -
16/07:00pm 21.8 SSE 4 5 1022.4 - 0.8 - Partly cloudy 10 - - - -
16/06:30pm 22.6 SE 5 7 1022.1 - 0.8 - - 10 - - - -
16/06:00pm 23.5 SE 6 8 1021.9 - 0.8 - - 10 - - - -
16/05:30pm 23.8 SE 7 11 1021.9 - 0.8 - - 10 - - - -
16/05:00pm 24.7 SE 8 12 1021.6 - 0.8 - - 10 - - - -
16/04:30pm 25.5 ESE 9 13 1021.6 - 0.8 - - 10 - - - -
16/04:00pm 26.0 ESE 10 15 1021.5 - 0.8 - - 10 - - - -
16/03:30pm 26.3 ESE 11 14 1021.5 - 0.8 - Partly cloudy 10 - - - -
16/03:00pm 27.1 ESE 10 15 1021.4 - 0.8 - Partly cloudy 10 - - - -
16/02:30pm 25.8 SE 8 13 1021.4 - 0.8 - Partly cloudy 10 - - - -
16/02:00pm 27.3 ESE 10 15 1021.5 - 0.8 - Partly cloudy 10 - - - -
16/01:30pm 26.4 ESE 10 14 1021.8 - 0.6 - Partly cloudy 10 - - - -
16/01:00pm 25.7 ESE 9 13 1022.2 - 0.6 - Cloudy 10 - - - -
16/12:30pm 24.1 SE 8 10 1022.6 - 0.6 - Partly cloudy 10 - - - -
16/12:15pm 22.7 SE 6 9 1023.0 - 0.6 - Partly cloudy 10 - - - -
16/12:00pm 21.9 SE 11 20 1023.2 - 0.6 Rain Cloudy 5 - - - -
16/11:59am 22.0 SE 11 20 1023.3 - 0.4 - Partly cloudy 5 - - - -
16/11:30am 23.7 SSE 6 9 1023.5 - 0.0 - Partly cloudy 10 - - - -
16/11:00am 26.4 ESE 9 14 1024.1 - 0.0 - Partly cloudy 10 - - - -
16/10:30am 24.9 ESE 7 10 1024.5 - 0.0 - Partly cloudy 10 - - - -
16/10:00am 25.1 ESE 7 11 1024.8 - 0.0 - Partly cloudy 10 - - - -
16/09:30am 24.5 S 4 6 1024.9 - 0.0 - Partly cloudy 10 - - - -
16/09:00am 22.7 SSE 3 5 1025.0 - 0.2 - Cloudy 10 - - - -
16/08:30am 20.9 SSW 6 8 1024.9 - 0.2 - Partly cloudy 10 - - - -
16/08:00am 20.0 SW 6 8 1024.6 - 0.2 - Partly cloudy 10 - - - -
16/07:30am 19.0 SSW 6 8 1024.4 - 0.2 - Partly cloudy 10 - - - -
16/07:00am 18.4 SSW 6 8 1024.1 - 0.2 - Partly cloudy 10 - - - -
16/06:30am 17.8 SW 5 7 1023.9 - 0.2 - Partly cloudy 10 - - - -
16/06:00am 17.4 SSW 6 7 1023.6 - 0.2 - - 10 - - - -
16/05:30am 17.3 SSW 6 8 1023.3 - 0.2 - - 10 - - - -
16/05:00am 17.2 SSW 7 8 1023.1 - 0.2 - - 10 - - - -
16/04:30am 17.4 SSW 7 8 1023.0 - 0.2 - Partly cloudy 10 - - - -
16/04:00am 17.4 SSW 6 8 1022.8 - 0.2 - - 10 - - - -
16/03:30am 17.5 SSW 5 7 1022.7 - 0.2 - - 10 - - - -
16/03:00am 17.6 SSW 5 7 1022.8 - 0.2 - - 10 - - - -
16/02:30am 17.7 SSW 5 6 1023.0 - 0.2 - - 10 - - - -
16/02:00am 17.7 SW 5 6 1023.3 - 0.2 - - 10 - - - -
16/01:30am 17.8 SSW 4 6 1023.5 - 0.2 - Partly cloudy 10 - - - -
16/01:00am 17.5 SSW 4 5 1023.7 - 0.2 - - 10 - - - -
16/12:30am 17.8 SSW 5 6 1023.9 - 0.2 - - 10 - - - -
16/12:00am 18.0 SSW 5 7 1024.1 - 0.2 - - 10 - - - -
 
Date/Time
EST
Temp

°C
Wind Pressure Rain
since 9am
mm
Weather Cloud Vis
km
Sea
Height
m
Swell
Dir
 
Speed
knots
Gust
knots
hPa Trend Height
m
Period
s
Dir
15/11:30pm 18.2 SW 5 6 1024.4 - 0.2 - - 10 - - - -
15/11:00pm 18.4 SSW 5 7 1024.4 - 0.2 - - 10 - - - -
15/10:30pm 18.4 SW 4 5 1024.6 - 0.2 - Partly cloudy 10 - - - -
15/10:00pm 18.0 SW 4 5 1024.4 - 0.2 - - 10 - - - -

Other Formats:

Comma delimited format used in spreadsheet applications
http://www.bom.gov.au/fwo/IDQ60701/IDQ60701.95565.axf

JavaScript Object Notation format (JSON) in row-major order
http://www.bom.gov.au/fwo/IDQ60701/IDQ60701.95565.json